createdAt,value
2023-03-22T00:00:44.747Z,4.57
2023-03-22T00:05:47.319Z,4.30
2023-03-22T00:10:51.386Z,4.22
2023-03-22T00:15:53.982Z,4.63
2023-03-22T00:20:57.448Z,4.20
2023-03-22T00:26:01.372Z,4.30
2023-03-22T00:31:04.550Z,4.22
2023-03-22T00:36:08.696Z,4.07
2023-03-22T00:41:13.938Z,5.20
2023-03-22T00:46:17.497Z,4.75
2023-03-22T00:51:20.089Z,4.78
2023-03-22T00:56:25.492Z,4.38
2023-03-22T01:01:36.703Z,4.07
2023-03-22T01:06:39.725Z,4.38
2023-03-22T01:11:44.328Z,4.88
2023-03-22T01:16:47.491Z,4.80
2023-03-22T01:21:50.380Z,4.32
2023-03-22T01:26:54.293Z,4.13
2023-03-22T01:31:57.170Z,3.60
2023-03-22T01:36:59.686Z,4.40
2023-03-22T01:42:05.589Z,3.60
2023-03-22T01:47:10.752Z,3.53
2023-03-22T01:52:15.409Z,3.67
2023-03-22T01:57:39.245Z,3.58
2023-03-22T02:02:47.292Z,4.15
2023-03-22T02:08:00.993Z,3.85
2023-03-22T02:13:19.124Z,3.60
2023-03-22T02:18:46.400Z,3.08
2023-03-22T02:24:19.520Z,3.60
2023-03-22T02:29:29.891Z,2.80
2023-03-22T02:34:51.869Z,2.63
2023-03-22T02:39:57.716Z,3.47
2023-03-22T02:45:02.939Z,3.40
2023-03-22T02:50:08.373Z,3.17
2023-03-22T02:55:15.692Z,3.03
2023-03-22T03:00:19.205Z,3.15
2023-03-22T03:05:22.656Z,2.88
2023-03-22T03:10:27.025Z,3.28
2023-03-22T03:15:29.707Z,3.50
2023-03-22T03:20:39.771Z,3.08
2023-03-22T03:25:48.837Z,3.25
2023-03-22T03:30:54.768Z,3.20
2023-03-22T03:36:01.502Z,3.20
2023-03-22T03:41:07.216Z,3.20
2023-03-22T03:46:10.241Z,3.00
2023-03-22T03:51:12.805Z,3.40
2023-03-22T03:56:17.248Z,3.13
2023-03-22T04:01:24.087Z,3.20
2023-03-22T04:06:48.002Z,3.60
2023-03-22T04:11:57.193Z,3.17
2023-03-22T04:17:00.304Z,3.33
2023-03-22T04:22:02.940Z,3.85
2023-03-22T04:27:09.410Z,3.75
2023-03-22T04:32:22.900Z,4.20
2023-03-22T04:37:26.970Z,3.90
2023-03-22T04:42:57.387Z,3.47
2023-03-22T04:48:11.183Z,3.78
2023-03-22T04:53:14.634Z,4.38
2023-03-22T04:58:22.036Z,4.10
2023-03-22T05:03:25.027Z,4.93
2023-03-22T05:08:29.147Z,5.03
2023-03-22T05:13:33.170Z,4.55
2023-03-22T05:18:38.059Z,4.90
2023-03-22T05:23:42.029Z,4.90
2023-03-22T05:28:47.195Z,5.00
2023-03-22T05:33:59.704Z,5.88
2023-03-22T05:39:05.695Z,5.20
2023-03-22T05:44:09.676Z,5.38
2023-03-22T05:49:16.453Z,6.10
2023-03-22T05:54:19.049Z,5.72
2023-03-22T05:59:27.963Z,5.40
2023-03-22T06:04:31.035Z,6.25
2023-03-22T06:09:41.530Z,5.38
2023-03-22T06:14:49.340Z,5.22
2023-03-22T06:20:16.198Z,5.38
2023-03-22T06:25:26.945Z,5.40
2023-03-22T06:30:32.473Z,5.63
2023-03-22T06:35:55.300Z,6.15
2023-03-22T06:41:06.926Z,5.65
2023-03-22T06:46:11.092Z,5.45
2023-03-22T06:51:21.645Z,5.97
2023-03-22T06:56:24.979Z,5.53
2023-03-22T07:01:30.390Z,5.80
2023-03-22T07:06:33.240Z,5.88
2023-03-22T07:11:37.407Z,5.95
2023-03-22T07:16:41.401Z,5.50
2023-03-22T07:21:44.072Z,5.38
2023-03-22T07:26:48.554Z,5.10
2023-03-22T07:31:57.111Z,5.65
2023-03-22T07:37:04.635Z,5.40
2023-03-22T07:42:07.848Z,5.00
2023-03-22T07:47:40.872Z,5.30
2023-03-22T07:53:05.264Z,5.68
2023-03-22T07:58:08.051Z,6.00
2023-03-22T08:03:13.244Z,5.82
2023-03-22T08:08:31.341Z,5.32
2023-03-22T08:13:35.685Z,5.75
2023-03-22T08:18:40.001Z,6.10
2023-03-22T08:23:43.565Z,5.55
2023-03-22T08:29:04.583Z,6.40
2023-03-22T08:34:12.004Z,5.60
2023-03-22T08:39:14.768Z,5.28
2023-03-22T08:44:27.527Z,6.20
2023-03-22T08:49:32.405Z,5.07
2023-03-22T08:54:40.968Z,5.75
2023-03-22T08:59:43.543Z,5.45
2023-03-22T09:05:06.629Z,5.10
2023-03-22T09:10:10.656Z,5.13
2023-03-22T09:15:16.886Z,5.20
2023-03-22T09:20:25.889Z,5.03
2023-03-22T09:25:28.797Z,4.55
2023-03-22T09:30:31.903Z,4.75
2023-03-22T09:35:36.605Z,3.88
2023-03-22T09:40:47.602Z,4.22
2023-03-22T09:45:51.818Z,4.40
2023-03-22T09:50:56.499Z,2.72
2023-03-22T09:56:02.236Z,2.83
2023-03-22T10:01:07.572Z,2.70
2023-03-22T10:06:13.538Z,2.65
2023-03-22T10:11:24.924Z,2.72
2023-03-22T10:16:29.498Z,2.80
2023-03-22T10:21:34.100Z,2.65
2023-03-22T10:26:39.546Z,3.13
2023-03-22T10:31:44.300Z,3.28
2023-03-22T10:36:49.587Z,3.55
2023-03-22T10:41:54.395Z,3.85
2023-03-22T10:46:59.391Z,3.53
2023-03-22T10:52:06.018Z,3.03
2023-03-22T10:57:08.608Z,3.60
2023-03-22T11:02:18.070Z,3.08
2023-03-22T11:07:29.959Z,3.28
2023-03-22T11:12:32.595Z,2.90
2023-03-22T11:17:38.282Z,3.13
2023-03-22T11:22:43.639Z,2.78
2023-03-22T11:27:54.257Z,2.55
2023-03-22T11:33:10.575Z,2.47
2023-03-22T11:38:25.246Z,2.08
2023-03-22T11:43:29.258Z,2.22
2023-03-22T11:48:33.282Z,1.70
2023-03-22T11:53:39.341Z,1.30
2023-03-22T11:58:48.724Z,1.90
2023-03-22T12:03:55.950Z,2.53
2023-03-22T12:09:02.939Z,1.55
2023-03-22T12:14:07.716Z,1.30
2023-03-22T12:19:18.511Z,1.50
2023-03-22T12:24:26.105Z,1.70
2023-03-22T12:29:29.923Z,1.60
2023-03-22T12:34:39.586Z,1.50
2023-03-22T12:39:47.144Z,1.77
2023-03-22T12:45:02.649Z,1.40
2023-03-22T12:50:12.180Z,1.30
2023-03-22T12:55:22.659Z,1.35
2023-03-22T13:00:28.541Z,1.08
2023-03-22T13:05:33.616Z,1.30
2023-03-22T13:10:42.455Z,1.30
2023-03-22T13:16:00.113Z,1.42
2023-03-22T13:21:10.373Z,1.17
2023-03-22T13:26:16.206Z,1.42
2023-03-22T13:31:32.231Z,1.35
2023-03-22T13:36:37.374Z,0.88
2023-03-22T13:41:41.637Z,0.88
2023-03-22T13:46:46.143Z,1.10
2023-03-22T13:51:49.317Z,1.00
2023-03-22T13:56:56.866Z,0.90
2023-03-22T14:02:05.087Z,1.65
2023-03-22T14:07:13.360Z,1.02
2023-03-22T14:12:20.608Z,1.00
2023-03-22T14:17:30.310Z,1.80
